createdAt,value
2022-11-24T00:01:33.987Z,99128.38
2022-11-24T00:04:02.796Z,99129.41
2022-11-24T00:06:31.403Z,99133.75
2022-11-24T00:08:59.318Z,99139.13
2022-11-24T00:11:28.070Z,99139.13
2022-11-24T00:13:57.326Z,99143.69
2022-11-24T00:16:26.153Z,99140.19
2022-11-24T00:18:54.802Z,99142.88
2022-11-24T00:21:22.722Z,99147.22
2022-11-24T00:23:50.700Z,99150.72
2022-11-24T00:26:19.358Z,99152.34
2022-11-24T00:28:47.936Z,99155.88
2022-11-24T00:31:19.017Z,99167.22
2022-11-24T00:33:48.351Z,99155.06
2022-11-24T00:36:16.327Z,99159.38
2022-11-24T00:38:44.391Z,99158.56
2022-11-24T00:41:13.908Z,99155.75
2022-11-24T00:43:41.781Z,99158.00
2022-11-24T00:46:09.846Z,99165.00
2022-11-24T00:48:39.127Z,99159.84
2022-11-24T00:51:07.991Z,99164.41
2022-11-24T00:53:35.871Z,99167.13
2022-11-24T00:56:04.449Z,99166.31
2022-11-24T00:58:32.685Z,99162.81
2022-11-24T01:01:03.365Z,99170.88
2022-11-24T01:03:31.250Z,99172.75
2022-11-24T01:06:05.456Z,99177.31
2022-11-24T01:08:33.325Z,99175.69
2022-11-24T01:11:09.253Z,99174.88
2022-11-24T01:13:37.170Z,99174.59
2022-11-24T01:16:05.224Z,99175.69
2022-11-24T01:18:33.205Z,99170.50
2022-11-24T01:21:10.096Z,99178.38
2022-11-24T01:23:38.360Z,99177.78
2022-11-24T01:26:06.870Z,99180.25
2022-11-24T01:28:34.767Z,99178.38
2022-11-24T01:31:21.005Z,99182.69
2022-11-24T01:33:48.895Z,99181.88
2022-11-24T01:36:18.151Z,99188.09
2022-11-24T01:38:46.023Z,99188.09
2022-11-24T01:41:14.963Z,99184.34
2022-11-24T01:43:43.203Z,99188.09
2022-11-24T01:46:15.867Z,99181.06
2022-11-24T01:48:44.817Z,99187.25
2022-11-24T01:51:14.003Z,99188.09
2022-11-24T01:53:43.999Z,99182.34
2022-11-24T01:56:14.680Z,99179.44
2022-11-24T01:58:43.155Z,99188.56
2022-11-24T02:01:11.116Z,99189.63
2022-11-24T02:03:40.247Z,99187.75
2022-11-24T02:06:09.880Z,99187.97
2022-11-24T02:08:43.982Z,99177.66
2022-11-24T02:11:11.904Z,99184.22
2022-11-24T02:13:40.235Z,99186.94
2022-11-24T02:16:08.743Z,99189.63
2022-11-24T02:18:36.699Z,99187.97
2022-11-24T02:21:04.557Z,99192.53
2022-11-24T02:23:34.601Z,99190.66
2022-11-24T02:26:05.774Z,99188.22
2022-11-24T02:28:35.027Z,99184.47
2022-11-24T02:31:02.961Z,99190.91
2022-11-24T02:33:30.840Z,99196.88
2022-11-24T02:35:58.710Z,99189.84
2022-11-24T02:38:30.851Z,99208.47
2022-11-24T02:40:58.697Z,99199.34
2022-11-24T02:43:26.607Z,99206.38
2022-11-24T02:45:55.928Z,99205.31
2022-11-24T02:48:23.842Z,99206.38
2022-11-24T02:50:51.708Z,99203.69
2022-11-24T02:53:19.584Z,99195.81
2022-11-24T02:55:47.450Z,99198.53
2022-11-24T02:58:15.835Z,99208.69
2022-11-24T03:01:27.368Z,99201.44
2022-11-24T03:03:56.667Z,99209.50
2022-11-24T03:06:24.519Z,99202.50
2022-11-24T03:08:52.370Z,99203.56
2022-11-24T03:11:21.506Z,99196.53
2022-11-24T03:13:50.280Z,99202.72
2022-11-24T03:16:18.184Z,99211.66
2022-11-24T03:18:48.150Z,99213.50
2022-11-24T03:21:17.408Z,99210.00
2022-11-24T03:23:45.331Z,99208.09
2022-11-24T03:26:14.650Z,99204.84
2022-11-24T03:28:42.556Z,99210.00
2022-11-24T03:31:10.491Z,99213.75
2022-11-24T03:33:38.340Z,99202.16
2022-11-24T03:36:06.999Z,99207.28
2022-11-24T03:38:36.399Z,99211.66
2022-11-24T03:41:04.273Z,99206.25
2022-11-24T03:43:32.148Z,99210.56
2022-11-24T03:46:00.056Z,99204.38
2022-11-24T03:48:27.992Z,99211.41
2022-11-24T03:50:56.461Z,99215.97
2022-11-24T03:53:24.589Z,99217.59
2022-11-24T03:55:53.823Z,99217.59
2022-11-24T03:58:21.720Z,99230.03
2022-11-24T04:00:49.780Z,99225.44
2022-11-24T04:03:17.652Z,99226.53
2022-11-24T04:05:45.522Z,99230.03
2022-11-24T04:08:13.752Z,99235.41
2022-11-24T04:10:41.675Z,99238.09
2022-11-24T04:13:13.106Z,99240.00
2022-11-24T04:15:41.305Z,99244.53
2022-11-24T04:18:09.646Z,99246.19
2022-11-24T04:20:38.038Z,99248.06
2022-11-24T04:23:05.974Z,99257.78
2022-11-24T04:25:33.930Z,99265.03
2022-11-24T04:28:01.903Z,99263.16
2022-11-24T04:30:31.223Z,99267.75
2022-11-24T04:32:59.155Z,99265.03
2022-11-24T04:35:27.086Z,99265.03
2022-11-24T04:37:55.024Z,99267.75
2022-11-24T04:40:22.914Z,99266.09
2022-11-24T04:42:54.951Z,99275.81
2022-11-24T04:45:22.854Z,99275.22
2022-11-24T04:47:52.232Z,99283.31
2022-11-24T04:50:20.802Z,99283.31
2022-11-24T04:52:48.899Z,99286.00
2022-11-24T04:55:16.851Z,99284.38
2022-11-24T04:57:44.816Z,99288.91
2022-11-24T05:00:14.157Z,99296.19
2022-11-24T05:02:42.083Z,99297.25
2022-11-24T05:05:11.542Z,99298.88
2022-11-24T05:07:39.474Z,99299.94
2022-11-24T05:10:25.622Z,99300.16
2022-11-24T05:12:57.225Z,99301.81
2022-11-24T05:15:25.122Z,99308.25
2022-11-24T05:17:53.033Z,99304.72
2022-11-24T05:20:22.434Z,99318.19
2022-11-24T05:22:50.392Z,99325.25
2022-11-24T05:25:18.358Z,99323.59
2022-11-24T05:27:46.326Z,99319.25
2022-11-24T05:30:15.092Z,99326.28
2022-11-24T05:32:42.989Z,99320.91
2022-11-24T05:35:11.145Z,99328.16
2022-11-24T05:37:40.496Z,99328.38
2022-11-24T05:40:09.383Z,99329.22
2022-11-24T05:42:47.586Z,99333.75
2022-11-24T05:45:17.050Z,99337.31
2022-11-24T05:47:45.088Z,99332.94
2022-11-24T05:50:14.418Z,99334.81
2022-11-24T05:52:43.734Z,99337.53
2022-11-24T05:55:11.899Z,99349.09
2022-11-24T05:57:39.863Z,99342.91
2022-11-24T06:00:10.634Z,99349.94
2022-11-24T06:02:38.703Z,99353.69
2022-11-24T06:05:07.151Z,99352.88
2022-11-24T06:07:35.195Z,99356.38
2022-11-24T06:10:05.152Z,99360.69
2022-11-24T06:12:33.134Z,99363.16
2022-11-24T06:15:01.201Z,99374.75
2022-11-24T06:17:29.167Z,99377.44
2022-11-24T06:19:57.099Z,99376.41
2022-11-24T06:22:25.025Z,99371.03
2022-11-24T06:24:52.982Z,99375.97
2022-11-24T06:27:22.239Z,99387.53
2022-11-24T06:29:50.170Z,99382.97
2022-11-24T06:32:18.057Z,99393.53
2022-11-24T06:34:45.977Z,99387.88
2022-11-24T06:37:13.924Z,99390.38
2022-11-24T06:39:41.971Z,99398.19
2022-11-24T06:42:10.166Z,99391.78
2022-11-24T06:44:41.986Z,99405.25
2022-11-24T06:47:09.999Z,99412.28
2022-11-24T06:49:37.923Z,99412.28
2022-11-24T06:52:06.125Z,99422.00
2022-11-24T06:54:34.334Z,99420.13
2022-11-24T06:57:02.546Z,99420.13
2022-11-24T06:59:30.460Z,99427.16
2022-11-24T07:02:27.850Z,99425.28
2022-11-24T07:04:56.594Z,99430.66
2022-11-24T07:07:24.652Z,99435.03
2022-11-24T07:09:52.775Z,99436.66
2022-11-24T07:12:24.331Z,99440.97
2022-11-24T07:14:52.394Z,99446.38
2022-11-24T07:17:20.396Z,99438.28
2022-11-24T07:19:49.720Z,99459.63
2022-11-24T07:22:17.663Z,99453.41
2022-11-24T07:24:45.562Z,99455.03
2022-11-24T07:27:13.498Z,99463.13
2022-11-24T07:29:41.422Z,99462.09
2022-11-24T07:32:09.387Z,99457.53
2022-11-24T07:34:37.599Z,99457.75
2022-11-24T07:37:07.074Z,99464.78
2022-11-24T07:39:35.040Z,99471.00
2022-11-24T07:42:05.140Z,99466.41
2022-11-24T07:44:33.527Z,99477.19
2022-11-24T07:50:42.745Z,99480.97
2022-11-24T07:53:12.160Z,99475.56
2022-11-24T07:55:40.094Z,99483.66
2022-11-24T07:58:08.044Z,99486.34
2022-11-24T08:00:35.986Z,99485.50
2022-11-24T08:03:03.884Z,99488.44
2022-11-24T08:05:31.861Z,99489.25
2022-11-24T08:08:01.223Z,99491.94
2022-11-24T08:10:30.544Z,99492.78
2022-11-24T08:13:01.261Z,99495.47
2022-11-24T08:15:30.327Z,99498.16
2022-11-24T08:17:58.248Z,99498.41
2022-11-24T08:20:27.307Z,99501.91
2022-11-24T08:22:58.379Z,99502.94
2022-11-24T08:25:31.602Z,99506.69
2022-11-24T08:28:01.097Z,99513.97
2022-11-24T08:30:29.610Z,99522.66
2022-11-24T08:32:59.583Z,99519.97
2022-11-24T08:35:27.651Z,99524.28
2022-11-24T08:37:59.160Z,99524.28
2022-11-24T08:40:29.708Z,99534.25
2022-11-24T08:42:59.992Z,99528.03
2022-11-24T08:45:30.674Z,99528.03
2022-11-24T08:47:58.915Z,99528.25
2022-11-24T08:50:27.005Z,99537.41
2022-11-24T08:52:55.036Z,99533.03
2022-11-24T08:55:22.963Z,99536.81
2022-11-24T08:57:50.880Z,99545.94
2022-11-24T09:00:23.534Z,99544.53
2022-11-24T09:02:56.465Z,99545.34
2022-11-24T09:05:50.816Z,99539.13
2022-11-24T09:08:12.442Z,99544.75
2022-11-24T09:10:40.325Z,99536.66
2022-11-24T09:13:08.209Z,99542.03
2022-11-24T09:15:38.031Z,99539.34
2022-11-24T09:18:05.919Z,99538.53
2022-11-24T09:20:33.817Z,99529.63
2022-11-24T09:23:01.772Z,99543.31
2022-11-24T09:25:29.809Z,99545.19
2022-11-24T09:27:58.648Z,99533.38
2022-11-24T09:30:26.716Z,99542.50
2022-11-24T09:32:56.687Z,99540.63
2022-11-24T09:35:24.713Z,99539.81
2022-11-24T09:37:52.708Z,99543.13
2022-11-24T09:40:20.671Z,99549.31
2022-11-24T09:42:54.097Z,99544.97
2022-11-24T09:48:34.930Z,99547.44
2022-11-24T09:51:03.518Z,99546.38
2022-11-24T09:53:33.359Z,99541.44
2022-11-24T09:56:03.274Z,99542.03
2022-11-24T09:58:35.210Z,99546.63
2022-11-24T10:01:03.552Z,99543.13
2022-11-24T10:03:36.158Z,99544.97
2022-11-24T10:06:05.687Z,99547.91
2022-11-24T10:08:45.285Z,99540.63
2022-11-24T10:11:14.743Z,99547.06
2022-11-24T10:14:01.810Z,99546.03
2022-11-24T10:16:36.987Z,99543.53
2022-11-24T10:19:13.149Z,99538.16
2022-11-24T10:21:52.319Z,99549.78
2022-11-24T10:24:37.871Z,99551.63
2022-11-24T10:27:12.488Z,99542.72
2022-11-24T10:29:40.479Z,99547.28
2022-11-24T10:32:13.851Z,99541.09
2022-11-24T10:34:44.794Z,99543.78
2022-11-24T10:37:15.618Z,99549.97
2022-11-24T10:39:47.652Z,99549.16
2022-11-24T10:42:17.004Z,99543.78
2022-11-24T10:44:45.025Z,99541.69
2022-11-24T10:47:46.741Z,99543.53
2022-11-24T10:50:21.503Z,99539.00
2022-11-24T10:52:51.811Z,99548.94
2022-11-24T10:55:21.633Z,99546.22
2022-11-24T10:57:49.785Z,99554.09
2022-11-24T11:00:35.932Z,99548.94
2022-11-24T11:03:20.321Z,99549.97
2022-11-24T11:05:52.088Z,99544.59
2022-11-24T11:08:22.457Z,99557.47
2022-11-24T11:10:52.652Z,99545.66
2022-11-24T11:13:24.992Z,99545.88
2022-11-24T11:15:52.976Z,99553.34
2022-11-24T11:18:22.251Z,99555.84
2022-11-24T11:20:53.354Z,99559.59
2022-11-24T11:23:23.962Z,99556.88
2022-11-24T11:25:51.978Z,99550.66
2022-11-24T11:28:24.791Z,99554.19
2022-11-24T11:34:05.490Z,99551.72
2022-11-24T11:36:39.957Z,99560.84
2022-11-24T11:39:07.999Z,99556.28
2022-11-24T11:41:37.817Z,99560.63
2022-11-24T11:44:15.506Z,99555.00
2022-11-24T11:46:44.509Z,99563.66
2022-11-24T11:49:12.915Z,99563.31
2022-11-24T11:51:48.861Z,99559.13
2022-11-24T11:54:21.287Z,99562.84
2022-11-24T11:56:51.374Z,99563.91
2022-11-24T11:59:34.175Z,99569.06
2022-11-24T12:02:14.424Z,99577.97
2022-11-24T12:04:45.587Z,99569.91
2022-11-24T12:07:38.853Z,99569.91
2022-11-24T12:10:11.998Z,99569.91
2022-11-24T12:12:51.424Z,99567.22
2022-11-24T12:15:22.902Z,99572.59
2022-11-24T12:18:33.490Z,99568.03
2022-11-24T12:21:07.897Z,99569.31
2022-11-24T12:23:43.835Z,99570.94
2022-11-24T12:26:16.299Z,99577.13
2022-11-24T12:28:47.899Z,99582.78
2022-11-24T12:31:20.329Z,99573.28
2022-11-24T12:34:18.171Z,99582.97
2022-11-24T12:36:53.477Z,99588.63
2022-11-24T12:39:26.713Z,99586.94
2022-11-24T12:42:05.912Z,99586.13
2022-11-24T12:44:52.383Z,99588.81
2022-11-24T12:47:21.754Z,99594.47
2022-11-24T12:49:56.511Z,99585.53
2022-11-24T12:52:26.593Z,99585.78
2022-11-24T12:54:55.960Z,99595.72
2022-11-24T12:57:26.840Z,99590.34
2022-11-24T13:00:00.273Z,99594.88
2022-11-24T13:02:34.914Z,99590.56
2022-11-24T13:05:12.952Z,99597.00
2022-11-24T13:07:44.381Z,99593.69
2022-11-24T13:10:54.746Z,99595.34
2022-11-24T13:13:24.055Z,99592.63
2022-11-24T13:16:35.812Z,99603.19
2022-11-24T13:19:09.978Z,99602.38
2022-11-24T13:21:50.894Z,99585.00
2022-11-24T13:24:26.617Z,99604.03
2022-11-24T13:26:56.908Z,99604.03
2022-11-24T13:29:35.975Z,99601.31
2022-11-24T13:32:52.497Z,99608.34
2022-11-24T13:35:22.123Z,99611.50
2022-11-24T13:37:53.003Z,99615.00
2022-11-24T13:40:59.856Z,99617.69
2022-11-24T13:43:34.148Z,99607.97
2022-11-24T13:46:03.891Z,99610.88
2022-11-24T13:49:01.385Z,99614.44
2022-11-24T13:51:30.461Z,99621.91
2022-11-24T13:54:01.384Z,99621.66
2022-11-24T13:56:30.599Z,99628.72
2022-11-24T13:59:02.974Z,99626.00
2022-11-24T14:01:33.629Z,99626.00
2022-11-24T14:04:31.476Z,99632.22
2022-11-24T14:07:13.922Z,99640.50
2022-11-24T14:09:46.635Z,99650.25
2022-11-24T14:12:16.618Z,99645.91
2022-11-24T14:14:46.947Z,99653.78
2022-11-24T14:17:17.412Z,99657.28
2022-11-24T14:19:46.990Z,99655.66
2022-11-24T14:22:17.995Z,99667.03
2022-11-24T14:24:47.286Z,99667.03
2022-11-24T14:27:17.033Z,99668.66
2022-11-24T14:29:57.428Z,99661.19
2022-11-24T14:32:25.413Z,99663.88
2022-11-24T14:34:54.734Z,99661.19
2022-11-24T14:37:22.806Z,99663.63
2022-11-24T14:39:51.352Z,99661.19
2022-11-24T14:42:21.076Z,99655.81
2022-11-24T14:44:53.435Z,99655.81
2022-11-24T14:47:45.250Z,99671.72
2022-11-24T14:50:14.697Z,99661.19
2022-11-24T14:52:47.051Z,99661.19
2022-11-24T14:55:25.548Z,99662.00
2022-11-24T14:57:53.428Z,99673.59
2022-11-24T15:00:27.421Z,99667.19
2022-11-24T15:02:57.404Z,99672.78
2022-11-24T15:05:26.113Z,99674.41
2022-11-24T15:08:01.743Z,99678.97
2022-11-24T15:10:33.809Z,99679.81
2022-11-24T15:13:02.428Z,99678.97
2022-11-24T15:15:31.713Z,99678.97
2022-11-24T15:18:01.886Z,99679.59
2022-11-24T15:20:32.093Z,99682.28
2022-11-24T15:23:23.937Z,99680.66
2022-11-24T15:25:52.925Z,99691.41
2022-11-24T15:28:26.432Z,99691.41
2022-11-24T15:30:55.111Z,99687.66
2022-11-24T15:33:24.556Z,99684.75
2022-11-24T15:35:53.186Z,99691.78
2022-11-24T15:38:21.219Z,99689.91
2022-11-24T15:40:51.172Z,99681.84
2022-11-24T15:43:28.678Z,99687.81
2022-11-24T15:45:57.293Z,99698.34
2022-11-24T15:48:29.196Z,99698.16
2022-11-24T15:50:58.048Z,99706.84
2022-11-24T15:53:26.865Z,99702.47
2022-11-24T15:55:57.037Z,99709.53
2022-11-24T15:58:25.163Z,99705.78
2022-11-24T16:00:54.380Z,99704.97
2022-11-24T16:03:46.538Z,99698.75
2022-11-24T16:06:14.397Z,99709.53
2022-11-24T16:08:44.903Z,99707.44
2022-11-24T16:11:14.066Z,99716.09
2022-11-24T16:13:45.564Z,99717.78
2022-11-24T16:16:17.204Z,99719.41
2022-11-24T16:18:45.425Z,99717.31
2022-11-24T16:21:16.787Z,99724.34
2022-11-24T16:23:45.622Z,99726.00
2022-11-24T16:26:15.497Z,99725.78
2022-11-24T16:28:46.501Z,99722.25
2022-11-24T16:31:16.765Z,99730.13
2022-11-24T16:33:46.267Z,99730.13
2022-11-24T16:36:16.449Z,99729.91
2022-11-24T16:38:44.345Z,99728.88
2022-11-24T16:41:13.284Z,99736.72
2022-11-24T16:43:41.191Z,99735.88
2022-11-24T16:46:19.441Z,99733.19
2022-11-24T16:48:47.951Z,99731.56
2022-11-24T16:51:19.367Z,99730.50
2022-11-24T16:53:47.277Z,99737.53
2022-11-24T16:56:16.520Z,99737.75
2022-11-24T16:58:45.851Z,99730.50
2022-11-24T17:01:14.358Z,99735.88
2022-11-24T17:03:43.325Z,99736.72
2022-11-24T17:06:14.019Z,99747.50
2022-11-24T17:08:43.590Z,99745.59
2022-11-24T17:11:14.051Z,99756.38
2022-11-24T17:13:42.203Z,99752.06
2022-11-24T17:16:14.473Z,99755.81
2022-11-24T17:18:42.603Z,99762.84
2022-11-24T17:21:14.319Z,99758.25
2022-11-24T17:23:43.815Z,99760.34
2022-11-24T17:26:14.089Z,99750.41
2022-11-24T17:28:43.472Z,99754.16
2022-11-24T17:31:14.677Z,99750.63
2022-11-24T17:33:42.722Z,99759.78
2022-11-24T17:36:12.977Z,99755.19
2022-11-24T17:38:43.641Z,99757.09
2022-11-24T17:41:12.350Z,99756.22
2022-11-24T17:43:40.305Z,99763.28
2022-11-24T17:46:08.277Z,99757.91
2022-11-24T17:48:37.043Z,99768.88
2022-11-24T17:51:06.189Z,99765.97
2022-11-24T17:53:34.869Z,99763.28
2022-11-24T17:56:04.262Z,99768.69
2022-11-24T17:58:35.339Z,99774.06
2022-11-24T18:01:05.278Z,99772.41
2022-11-24T18:03:33.989Z,99779.47
2022-11-24T18:06:06.114Z,99776.75
2022-11-24T18:08:35.241Z,99778.41
2022-11-24T18:11:07.944Z,99771.38
2022-11-24T18:16:27.793Z,99777.38
2022-11-24T18:19:18.641Z,99783.56
2022-11-24T18:21:46.917Z,99788.16
2022-11-24T18:24:18.595Z,99787.91
2022-11-24T18:26:51.972Z,99795.19
2022-11-24T18:29:20.635Z,99799.50
2022-11-24T18:31:48.614Z,99799.75
2022-11-24T18:34:17.285Z,99801.38
2022-11-24T18:36:47.475Z,99811.34
2022-11-24T18:39:18.027Z,99815.91
2022-11-24T18:41:46.092Z,99815.09
2022-11-24T18:44:15.425Z,99812.41
2022-11-24T18:46:43.825Z,99814.25
2022-11-24T18:49:11.793Z,99817.78
2022-11-24T18:51:39.767Z,99828.56
2022-11-24T18:54:07.818Z,99824.00
2022-11-24T18:56:35.753Z,99831.25
2022-11-24T18:59:03.732Z,99828.56
2022-11-24T19:01:33.338Z,99830.41
2022-11-24T19:04:02.905Z,99829.59
2022-11-24T19:06:32.507Z,99836.66
2022-11-24T19:09:01.658Z,99830.41
2022-11-24T19:11:33.213Z,99836.66
2022-11-24T19:14:01.435Z,99825.88
2022-11-24T19:16:29.447Z,99834.97
2022-11-24T19:19:00.635Z,99835.59
2022-11-24T19:21:28.623Z,99837.22
2022-11-24T19:24:02.925Z,99835.38
2022-11-24T19:26:32.642Z,99835.16
2022-11-24T19:29:01.873Z,99839.50
2022-11-24T19:31:30.945Z,99843.03
2022-11-24T19:34:01.489Z,99851.13
2022-11-24T19:36:29.329Z,99851.94
2022-11-24T19:38:59.191Z,99850.28
2022-11-24T19:41:29.507Z,99854.00
2022-11-24T19:43:59.486Z,99859.41
2022-11-24T19:46:29.705Z,99858.59
2022-11-24T19:49:00.847Z,99865.03
2022-11-24T19:51:31.644Z,99873.94
2022-11-24T19:54:00.395Z,99873.94
2022-11-24T19:56:29.382Z,99877.44
2022-11-24T19:58:58.140Z,99875.56
2022-11-24T20:01:27.042Z,99885.34
2022-11-24T20:07:47.481Z,99881.78
2022-11-24T20:10:16.287Z,99880.97
2022-11-24T20:12:44.295Z,99879.31
2022-11-24T20:15:12.981Z,99884.72
2022-11-24T20:17:40.910Z,99885.53
2022-11-24T20:20:10.198Z,99888.44
2022-11-24T20:22:38.116Z,99899.22
2022-11-24T20:25:09.970Z,99886.78
2022-11-24T20:27:38.616Z,99893.81
2022-11-24T20:30:09.701Z,99895.50
2022-11-24T20:32:38.384Z,99894.69
2022-11-24T20:35:07.690Z,99904.19
2022-11-24T20:37:35.645Z,99909.59
2022-11-24T20:40:05.054Z,99902.31
2022-11-24T20:42:35.635Z,99897.75
2022-11-24T20:45:04.282Z,99896.94
2022-11-24T20:47:32.249Z,99897.53
2022-11-24T20:50:00.891Z,99907.47
2022-11-24T20:52:28.883Z,99911.00
2022-11-24T20:54:58.088Z,99907.25
2022-11-24T20:57:26.022Z,99909.97
2022-11-24T20:59:59.361Z,99909.13
2022-11-24T21:02:27.417Z,99912.41
2022-11-24T21:04:56.196Z,99915.13
2022-11-24T21:07:24.164Z,99909.97
2022-11-24T21:09:53.720Z,99917.81
2022-11-24T21:12:21.623Z,99914.28
2022-11-24T21:14:50.270Z,99917.81
2022-11-24T21:17:19.570Z,99924.88
2022-11-24T21:19:49.750Z,99925.91
2022-11-24T21:22:17.760Z,99924.88
2022-11-24T21:24:46.476Z,99920.50
2022-11-24T21:27:14.345Z,99929.44
2022-11-24T21:29:44.251Z,99928.59
2022-11-24T21:32:12.251Z,99936.69
2022-11-24T21:34:42.369Z,99928.59
2022-11-24T21:37:10.353Z,99936.69
2022-11-24T21:39:39.145Z,99939.38
2022-11-24T21:42:07.395Z,99937.72
2022-11-24T21:44:35.626Z,99942.06
2022-11-24T21:47:05.791Z,99931.53
2022-11-24T21:49:33.761Z,99940.44
2022-11-24T21:52:03.879Z,99949.34
2022-11-24T21:54:31.842Z,99943.94
2022-11-24T21:57:01.811Z,99948.50
2022-11-24T21:59:29.724Z,99943.94
2022-11-24T22:01:58.942Z,99955.53
2022-11-24T22:04:26.933Z,99967.38
2022-11-24T22:06:55.587Z,99959.53
2022-11-24T22:09:24.973Z,99965.75
2022-11-24T22:11:54.764Z,99959.72
2022-11-24T22:14:22.694Z,99968.03
2022-11-24T22:16:51.393Z,99979.66
2022-11-24T22:19:19.406Z,99979.66
2022-11-24T22:21:48.130Z,99983.38
2022-11-24T22:24:16.124Z,99987.13
2022-11-24T22:26:46.168Z,99985.47
2022-11-24T22:29:15.643Z,99990.03
2022-11-24T22:31:45.809Z,99999.97
2022-11-24T22:34:13.757Z,99991.28
2022-11-24T22:36:42.355Z,99996.69
2022-11-24T22:39:15.327Z,100002.06
2022-11-24T22:41:44.368Z,100000.44
2022-11-24T22:44:13.753Z,100006.84
2022-11-24T22:46:42.809Z,99999.59
2022-11-24T22:49:10.941Z,100003.31
2022-11-24T22:51:40.280Z,100010.59
2022-11-24T22:54:08.183Z,100005.81
2022-11-24T22:56:36.749Z,100007.69
2022-11-24T22:59:05.123Z,100004.13
2022-11-24T23:01:37.175Z,100005.81
2022-11-24T23:04:23.406Z,100005.59
2022-11-24T23:06:52.258Z,100005.81
2022-11-24T23:09:20.139Z,100009.34
2022-11-24T23:11:48.975Z,100005.81
2022-11-24T23:14:16.966Z,100012.22
2022-11-24T23:16:46.561Z,100001.44
2022-11-24T23:19:14.493Z,100004.13
2022-11-24T23:21:42.451Z,100018.47
2022-11-24T23:24:11.411Z,100017.63
2022-11-24T23:26:40.865Z,100013.28
2022-11-24T23:29:08.873Z,100013.28
2022-11-24T23:31:39.741Z,100016.78
2022-11-24T23:34:09.593Z,100010.59
2022-11-24T23:36:38.549Z,100014.91
2022-11-24T23:39:07.113Z,100018.66
2022-11-24T23:41:35.003Z,100024.06
2022-11-24T23:44:02.914Z,100010.78
2022-11-24T23:46:30.863Z,100015.38
2022-11-24T23:48:58.803Z,100017.47
2022-11-24T23:51:30.091Z,100017.47
2022-11-24T23:53:58.265Z,100023.69
2022-11-24T23:56:26.855Z,100033.63
2022-11-24T23:58:54.767Z,100025.75
